Pittsburgh, Pennsylvania
Traffic Map
Current Weather Conditions
Pittsburgh, Pennsylvania
Clear
Clear
61°
Feels Like: 61°
Wind Chill: 61° Ceiling: Unl
Heat Index: 61° Visibility: 10mi
Dew Point: 26° Wind: 6mph
Humidity: 26% Direction: 110° (ESE)
Pressure: 30.02in Gusts: 0mph
Raw Report DataKAGC 240053Z 11005KT 10SM CLR 16/M03 A3002 RMK AO2 SLP171 T01611033
Traffic Incident Summary
Active as of:
Severity:
Category:
InformationThere was an issue retrieving the traffic information for this location. Please try a different location or try again shortly.
Advertisements
Track Severe Weather on mobile